Latest Weather Observations for Parawa West

IDS60801

Issued at 11:01 am CST Tuesday 28 June 2016 (issued every 30 minutes, with the page automatically refreshed every 10 minutes)

About weather observations | Map of weather stations | Latest weather observations for SA | Other Formats
Station Details ID: 023875 Name: SECOND VALLEY FOREST AWS Lat: -35.57 Lon: 138.29 Height: 341.0 m
Data from the previous 72 hours. | See also: Recent months at Parawa West
Date/Time
CST
Temp
°C
App
Temp
°C
Dew
Point
°C
Rel
Hum
%
Delta-T
°C
Wind Press
QNH
hPa
Press
MSL
hPa
Rain since
9am
mm
Dir  Spd
km/h
Gust
km/h
Spd
kts
Gust
kts
28/11:00am 11.7 8.5 11.1 96 0.3 NW 19 28 10 15 1025.7 1026.0 0.0
28/10:30am 11.4 7.9 10.9 97 0.3 NW 20 32 11 17 1025.7 1026.0 0.0
28/10:00am 10.9 7.0 10.7 99 0.1 NW 22 32 12 17 1025.6 1025.9 0.0
28/09:30am 10.7 7.1 10.7 100 0.0 NW 20 35 11 19 1025.4 1025.7 0.0
28/09:00am 10.5 7.1 10.5 100 0.0 NNW 19 33 10 18 1025.2 1025.5 0.8
28/08:30am 10.6 7.6 10.6 100 0.0 NW 17 26 9 14 1024.9 1025.2 0.8
28/08:00am 10.5 7.1 10.5 100 0.0 NW 19 28 10 15 1024.6 1024.8 0.8
28/07:30am 10.5 7.1 10.5 100 0.0 NW 19 32 10 17 1024.3 1024.5 0.8
28/07:00am 10.0 6.4 10.0 100 0.0 WNW 19 28 10 15 1024.0 1024.2 0.6
28/06:30am 10.5 6.9 10.5 100 0.0 NW 20 32 11 17 1023.7 1023.9 0.4
28/06:00am 10.6 8.3 10.4 99 0.1 NW 13 20 7 11 1023.1 1023.4 0.2
28/05:30am 10.6 7.5 10.4 99 0.1 NW 17 26 9 14 1023.0 1023.3 0.2
28/05:00am 10.6 7.0 10.4 99 0.1 NW 20 32 11 17 1022.7 1023.0 0.0
28/04:30am 10.5 7.0 10.3 99 0.1 NW 19 30 10 16 1022.6 1022.9 0.0
28/04:00am 10.6 7.1 10.3 98 0.2 NW 19 28 10 15 1022.6 1022.9 0.0
28/03:30am 10.7 7.3 10.4 98 0.2 NW 19 32 10 17 1022.5 1022.8 0.0
28/03:00am 10.6 6.9 10.1 97 0.3 NW 20 30 11 16 1022.6 1022.9 0.0
28/02:30am 10.6 6.9 10.1 97 0.3 NW 20 32 11 17 1022.7 1023.0 0.0
28/02:00am 10.6 7.1 10.1 97 0.3 NW 19 26 10 14 1022.8 1023.1 0.0
28/01:30am 10.5 6.8 10.0 97 0.3 NW 20 30 11 16 1022.6 1022.9 0.0
28/01:00am 10.5 6.9 9.9 96 0.3 NW 19 30 10 16 1022.7 1023.0 0.0
28/12:30am 10.5 6.9 9.7 95 0.4 NW 19 30 10 16 1022.7 1023.0 0.0
28/12:00am 10.6 7.3 9.4 92 0.6 NW 17 28 9 15 1022.7 1023.0 0.0
 
Date/Time
CST
Temp
°C
App
Temp
°C
Dew
Point
°C
Rel
Hum
%
Delta-T
°C
Wind Press
QNH
hPa
Press
MSL
hPa
Rain since
9am
mm
Dir  Spd
km/h
Gust
km/h
Spd
kts
Gust
kts
27/11:30pm 10.2 6.4 9.1 93 0.6 NW 19 28 10 15 1022.7 1023.0 0.0
27/11:00pm 10.2 6.8 9.3 94 0.5 NNW 17 24 9 13 1022.5 1022.8 0.0
27/10:30pm 10.2 6.4 9.1 93 0.6 NW 19 28 10 15 1022.6 1022.9 0.0
27/10:00pm 9.9 6.5 9.1 95 0.4 NNW 17 24 9 13 1022.5 1022.8 0.0
27/09:30pm 9.7 7.0 9.1 96 0.3 NW 13 19 7 10 1022.6 1022.9 0.0
27/09:00pm 9.8 7.2 9.2 96 0.3 NNW 13 22 7 12 1022.4 1022.7 0.0
27/08:30pm 9.7 7.0 8.8 94 0.4 NW 13 19 7 10 1022.4 1022.7 0.0
27/08:00pm 9.4 6.9 8.2 92 0.6 NW 11 15 6 8 1022.2 1022.5 0.0
27/07:30pm 9.4 7.2 8.0 91 0.7 NW 9 15 5 8 1022.1 1022.3 0.0
27/07:00pm 9.3 7.1 7.7 90 0.8 NW 9 13 5 7 1021.8 1022.0 0.0
27/06:30pm 9.7 6.7 7.8 88 0.9 NW 13 20 7 11 1021.6 1021.8 0.0
27/06:00pm 9.9 6.9 7.8 87 1.0 WNW 13 20 7 11 1021.2 1021.4 0.0
27/05:30pm 9.5 7.1 6.9 84 1.2 WNW 9 13 5 7 1021.0 1021.2 0.0
27/05:00pm 10.3 7.1 6.8 79 1.7 WNW 13 17 7 9 1020.8 1021.0 0.0
27/04:30pm 11.3 8.8 8.3 82 1.5 NW 11 20 6 11 1020.5 1020.7 0.0
27/04:00pm 10.9 7.9 7.8 81 1.5 NW 13 19 7 10 1020.4 1020.6 0.0
27/03:30pm 11.2 7.4 7.5 78 1.8 NW 17 26 9 14 1020.4 1020.6 0.0
27/03:00pm 11.5 7.8 7.8 78 1.8 WNW 17 24 9 13 1020.0 1020.3 0.0
27/02:30pm 10.9 7.1 7.4 79 1.7 WNW 17 24 9 13 1020.0 1020.3 0.0
27/02:00pm 11.2 7.5 6.5 73 2.3 WNW 15 24 8 13 1020.0 1020.3 0.0
27/01:30pm 11.8 8.2 6.7 71 2.5 WNW 15 24 8 13 1020.1 1020.4 0.0
27/01:00pm 11.2 7.0 5.5 68 2.7 WNW 17 24 9 13 1020.2 1020.5 0.0
27/12:30pm 11.6 8.2 5.9 68 2.7 W 13 20 7 11 1020.4 1020.6 0.0
27/12:00pm 11.5 7.4 6.0 69 2.6 WNW 17 26 9 14 1020.8 1021.0 0.0
27/11:30am 11.3 9.1 6.4 72 2.3 SW 7 11 4 6 1020.9 1021.1 0.0
27/11:00am 10.9 8.1 5.2 68 2.7 WSW 9 15 5 8 1020.9 1021.1 0.0
27/10:30am 10.6 8.3 5.6 71 2.3 SW 7 13 4 7 1020.8 1021.0 0.0
27/10:00am 10.2 7.9 5.6 73 2.1 SW 7 13 4 7 1020.6 1020.8 0.0
27/09:30am 9.6 7.5 6.7 82 1.4 SW 7 11 4 6 1020.4 1020.6 0.0
27/09:00am 8.9 6.5 6.9 87 0.9 W 9 13 5 7 1020.0 1020.3 5.0
27/08:30am 8.9 6.4 6.7 86 1.0 W 9 15 5 8 1019.7 1020.0 5.0
27/08:00am 7.3 5.2 5.6 89 0.8 SW 6 9 3 5 1019.4 1019.6 5.0
27/07:30am 7.0 4.7 5.6 91 0.6 SW 7 11 4 6 1018.9 1019.1 5.0
27/07:00am 7.0 4.4 5.9 93 0.5 SW 9 11 5 6 1018.4 1018.6 5.0
27/06:30am 7.4 5.3 6.5 94 0.4 SW 7 11 4 6 1018.0 1018.2 5.0
27/06:00am 7.7 4.9 7.0 95 0.3 SW 11 17 6 9 1017.6 1017.8 4.6
27/05:30am 8.0 5.4 7.7 98 0.1 SSW 11 17 6 9 1017.3 1017.5 4.6
27/05:00am 8.4 6.7 8.3 99 0.0 SW 7 11 4 6 1017.0 1017.2 4.6
27/04:30am 8.6 6.9 8.5 99 0.0 SSW 7 15 4 8 1016.6 1016.8 4.6
27/04:00am 8.4 6.3 8.3 99 0.0 SSW 9 13 5 7 1016.2 1016.4 4.4
27/03:30am 8.4 5.9 8.1 98 0.1 SW 11 15 6 8 1016.2 1016.4 4.4
27/03:00am 8.5 6.8 8.2 98 0.1 SSW 7 11 4 6 1016.2 1016.4 4.2
27/02:30am 8.4 6.3 8.1 98 0.1 SW 9 13 5 7 1016.0 1016.2 4.2
27/02:00am 8.3 6.5 8.0 98 0.1 WSW 7 11 4 6 1016.0 1016.2 4.2
27/01:30am 8.6 6.9 8.3 98 0.1 WSW 7 13 4 7 1015.9 1016.1 4.2
27/01:00am 9.0 7.1 8.9 99 0.0 WNW 9 11 5 6 1015.8 1016.0 3.0
27/12:30am 8.7 6.6 8.4 98 0.1 WNW 9 13 5 7 1015.8 1016.0 2.8
27/12:00am 8.9 5.3 8.5 97 0.2 WNW 17 24 9 13 1015.6 1015.8 2.8
 
Date/Time
CST
Temp
°C
App
Temp
°C
Dew
Point
°C
Rel
Hum
%
Delta-T
°C
Wind Press
QNH
hPa
Press
MSL
hPa
Rain since
9am
mm
Dir  Spd
km/h
Gust
km/h
Spd
kts
Gust
kts
26/11:30pm 9.4 6.7 8.9 97 0.2 NW 13 22 7 12 1015.7 1015.9 2.0
26/11:00pm 9.1 6.9 8.0 93 0.5 NW 9 17 5 9 1015.7 1015.9 1.8
26/10:30pm 9.3 5.8 7.3 87 1.0 NNW 15 24 8 13 1015.6 1015.8 0.4
26/10:00pm 9.4 5.8 6.8 84 1.2 NNW 15 24 8 13 1015.5 1015.7 0.4
26/09:30pm 9.4 6.2 7.0 85 1.1 NNW 13 20 7 11 1015.5 1015.7 0.4
26/09:00pm 9.3 5.7 6.7 84 1.2 NNW 15 26 8 14 1015.5 1015.7 0.4
26/08:30pm 9.0 5.7 6.6 85 1.1 NNW 13 20 7 11 1015.5 1015.7 0.4
26/08:00pm 9.1 5.8 6.4 83 1.3 NNW 13 20 7 11 1015.4 1015.6 0.4
26/07:30pm 8.7 5.4 6.2 84 1.2 NNW 13 17 7 9 1015.2 1015.4 0.4
26/07:00pm 8.5 5.1 5.8 83 1.2 NNW 13 20 7 11 1015.1 1015.3 0.4
26/06:30pm 8.7 4.9 5.8 82 1.3 NNW 15 20 8 11 1015.1 1015.3 0.4
26/06:00pm 8.6 5.2 5.7 82 1.3 NNW 13 19 7 10 1014.9 1015.1 0.4
26/05:30pm 8.7 4.8 5.4 80 1.5 NNW 15 20 8 11 1014.5 1014.6 0.4
26/05:00pm 8.9 4.3 5.5 79 1.6 NW 19 28 10 15 1014.4 1014.5 0.4
26/04:30pm 9.2 4.6 5.4 77 1.8 NW 19 26 10 14 1014.2 1014.3 0.4
26/04:00pm 9.1 4.5 5.7 79 1.6 NW 19 30 10 16 1014.2 1014.3 0.4
26/03:30pm 9.0 5.2 5.6 79 1.6 NW 15 30 8 16 1013.9 1014.1 0.4
26/03:00pm 9.3 5.1 5.7 78 1.7 NW 17 24 9 13 1014.0 1014.2 0.0
26/02:30pm 9.7 5.5 5.9 77 1.8 NW 17 30 9 16 1014.3 1014.4 0.0
26/02:00pm 9.8 5.6 5.8 76 1.9 NW 17 24 9 13 1014.5 1014.6 0.0
26/01:30pm 9.7 5.1 5.5 75 1.9 NW 19 30 10 16 1014.6 1014.7 0.0
26/01:00pm 9.8 5.0 4.8 71 2.3 NNW 19 33 10 18 1014.9 1015.1 0.0
26/12:30pm 9.5 4.6 4.9 73 2.1 NW 20 32 11 17 1015.2 1015.4 0.0
26/12:00pm 9.6 4.5 4.2 69 2.4 NW 20 32 11 17 1015.5 1015.7 0.0
26/11:30am 9.7 4.7 4.7 71 2.3 NW 20 33 11 18 1016.1 1016.3 0.0
26/11:00am 9.0 5.4 5.0 76 1.8 NW 13 24 7 13 1016.5 1016.7 0.0
26/10:30am 9.3 4.6 5.1 75 1.9 NW 19 33 10 18 1016.7 1016.9 0.0
26/10:00am 8.9 4.4 4.1 72 2.1 NNW 17 28 9 15 1016.7 1016.9 0.0
26/09:30am 8.9 3.8 3.3 68 2.5 NW 19 30 10 16 1016.7 1016.9 0.0
26/09:00am 9.0 5.5 3.4 68 2.5 NNW 11 22 6 12 1016.6 1016.8 0.4
26/08:30am 8.7 4.8 3.3 69 2.4 NNW 13 24 7 13 1016.6 1016.8 0.4
26/08:00am 8.3 5.1 2.8 68 2.4 NNW 9 15 5 8 1016.5 1016.7 0.4
26/07:30am 8.5 3.8 2.9 68 2.4 NNW 17 28 9 15 1016.5 1016.7 0.4
26/07:00am 9.0 3.5 2.1 62 2.9 NNW 20 33 11 18 1016.3 1016.5 0.4
26/06:30am 8.8 3.6 2.4 64 2.7 NNW 19 32 10 17 1016.3 1016.5 0.4
26/06:00am 8.9 4.5 2.5 64 2.8 NNW 15 30 8 16 1016.4 1016.6 0.4
26/05:30am 8.8 4.1 3.0 67 2.5 NNW 17 28 9 15 1016.5 1016.7 0.4
26/05:00am 8.8 5.1 4.4 74 2.0 NNW 13 20 7 11 1016.7 1016.9 0.4
26/04:30am 8.8 4.3 4.2 73 2.1 NNW 17 24 9 13 1017.0 1017.2 0.4
26/04:00am 8.8 4.5 3.2 68 2.4 NNW 15 22 8 12 1017.1 1017.3 0.4
26/03:30am 8.9 3.9 3.5 69 2.4 NNW 19 33 10 18 1017.4 1017.6 0.4
26/03:00am 8.9 3.8 2.9 66 2.6 NNW 19 26 10 14 1017.5 1017.7 0.4
26/02:30am 8.8 4.5 3.2 68 2.4 NNW 15 26 8 14 1017.7 1017.9 0.4
26/02:00am 8.7 3.9 2.7 66 2.6 NNW 17 32 9 17 1018.0 1018.2 0.4
26/01:30am 8.8 4.1 3.0 67 2.5 NNW 17 24 9 13 1018.2 1018.4 0.4
26/01:00am 8.7 4.5 3.7 71 2.2 NNW 15 26 8 14 1018.3 1018.5 0.4
26/12:30am 8.7 5.0 4.3 74 2.0 NNW 13 22 7 12 1018.6 1018.8 0.4
26/12:00am 8.7 4.7 5.1 78 1.6 NW 15 22 8 12 1018.6 1018.8 0.4
 
Date/Time
CST
Temp
°C
App
Temp
°C
Dew
Point
°C
Rel
Hum
%
Delta-T
°C
Wind Press
QNH
hPa
Press
MSL
hPa
Rain since
9am
mm
Dir  Spd
km/h
Gust
km/h
Spd
kts
Gust
kts
25/11:30pm 8.8 6.3 4.8 76 1.8 NW 7 15 4 8 1018.9 1019.1 0.4
25/11:00pm 8.5 6.7 5.6 82 1.3 NW 4 7 2 4 1019.0 1019.2 0.4
25/10:30pm 8.4 6.2 6.2 86 1.0 NNW 7 13 4 7 1019.3 1019.5 0.4
25/10:00pm 7.5 6.6 6.1 91 0.6 CALM 0 2 0 1 1019.6 1019.8 0.4
25/09:30pm 7.8 7.0 6.3 90 0.7 CALM 0 0 0 0 1019.5 1019.7 0.4
25/09:00pm 8.0 6.5 6.6 91 0.7 NNW 4 6 2 3 1019.9 1020.2 0.4
25/08:30pm 8.0 6.2 7.2 95 0.4 NNW 6 9 3 5 1020.0 1020.3 0.4
25/08:00pm 7.9 6.5 7.1 95 0.4 NNW 4 7 2 4 1020.7 1020.9 0.4
25/07:30pm 7.4 3.7 6.5 94 0.4 NNW 15 22 8 12 1020.9 1021.1 0.4
25/07:00pm 8.0 5.4 7.6 97 0.2 NNW 11 20 6 11 1020.9 1021.1 0.2
25/06:30pm 8.4 7.1 7.6 95 0.4 NNW 4 11 2 6 1020.6 1020.8 0.2
25/06:00pm 8.2 6.6 6.2 87 0.9 NNW 4 7 2 4 1020.6 1020.8 0.2
25/05:30pm 7.3 4.8 4.8 84 1.1 NW 7 9 4 5 1020.6 1020.8 0.2
25/05:00pm 7.4 5.8 4.4 81 1.3 N 2 7 1 4 1020.5 1020.7 0.2
25/04:30pm 7.8 5.9 4.7 81 1.4 N 4 6 2 3 1020.7 1020.9 0.2
25/04:00pm 8.0 6.6 5.3 83 1.2 W 2 7 1 4 1020.9 1021.1 0.2
25/03:30pm 8.9 6.7 6.0 82 1.3 NNW 7 17 4 9 1021.0 1021.2 0.2
25/03:00pm 9.4 7.6 7.2 86 1.1 NNW 6 13 3 7 1021.2 1021.4 0.2
25/02:30pm 8.7 7.5 7.9 95 0.4 NW 4 9 2 5 1021.3 1021.5 0.2
25/02:00pm 8.7 7.1 7.9 95 0.4 N 6 15 3 8 1021.5 1021.7 0.2
25/01:30pm 8.6 7.4 8.0 96 0.3 NNE 4 11 2 6 1021.7 1021.9 0.2
25/01:00pm 8.5 7.6 7.9 96 0.3 NE 2 6 1 3 1022.1 1022.3 0.2
25/12:30pm 8.5 7.3 7.9 96 0.3 NW 4 11 2 6 1022.6 1022.9 0.2
25/12:00pm 8.4 6.7 7.6 95 0.4 NNW 6 9 3 5 1023.2 1023.5 0.0
25/11:30am 8.9 7.8 8.5 97 0.2 NNW 4 9 2 5 1023.6 1023.8 0.0

Other Formats:

Comma delimited format used in spreadsheet applications
http://www.bom.gov.au/fwo/IDS60801/IDS60801.94811.axf

JavaScript Object Notation format (JSON) in row-major order
http://www.bom.gov.au/fwo/IDS60801/IDS60801.94811.json